Time;durP1;ratioP1;P1;durP2;ratioP2;P2;SDS_P1;SDS_P2;PMS_P1;PMS_P2;Temp;Humidity;BMP_temperature;BMP_pressure;BME280_temperature;BME280_humidity;BME280_pressure;Samples;Min_cycle;Max_cycle;Signal;HPM_P1;HPM_P2
2022/07/02 00:04:19;;;;;;;8.85;3.85;;;;;;;;;;21258314;27;20062;-57
2022/07/02 00:14:21;;;;;;;10.80;4.45;;;;;;;;;;21256476;27;20051;-57
2022/07/02 00:24:23;;;;;;;11.93;3.35;;;;;;;;;;21256968;27;20051;-57
2022/07/02 00:34:25;;;;;;;15.52;4.30;;;;;;;;;;21255222;27;20044;-57
2022/07/02 00:44:30;;;;;;;11.80;3.70;;;;;;;;;;21255301;27;20047;-56
2022/07/02 00:54:32;;;;;;;12.77;4.50;;;;;;;;;;21253294;27;20099;-58
2022/07/02 01:04:34;;;;;;;10.13;4.18;;;;;;;;;;21252248;27;20196;-56
2022/07/02 01:14:37;;;;;;;11.75;4.28;;;;;;;;;;21252460;27;20047;-55
2022/07/02 01:24:40;;;;;;;8.77;4.22;;;;;;;;;;21250829;27;20062;-56
2022/07/02 01:34:45;;;;;;;9.85;4.22;;;;;;;;;;21250491;27;20047;-56
2022/07/02 01:44:51;;;;;;;11.93;4.63;;;;;;;;;;21250290;27;20555;-55
2022/07/02 01:54:58;;;;;;;10.45;4.10;;;;;;;;;;21248908;27;20047;-57
2022/07/02 02:05:05;;;;;;;11.80;4.95;;;;;;;;;;21248050;27;20172;-57
2022/07/02 02:15:13;;;;;;;9.25;4.07;;;;;;;;;;21249365;27;20401;-58
2022/07/02 02:25:19;;;;;;;9.38;4.30;;;;;;;;;;21247293;28;20051;-56
2022/07/02 02:35:24;;;;;;;11.32;4.65;;;;;;;;;;21248903;27;20054;-55
2022/07/02 02:45:29;;;;;;;12.40;4.55;;;;;;;;;;21264952;27;20047;-56
2022/07/02 02:55:32;;;;;;;10.75;4.63;;;;;;;;;;21263743;27;20126;-58
2022/07/02 03:05:36;;;;;;;9.40;4.32;;;;;;;;;;21262082;27;20058;-58
2022/07/02 03:15:38;;;;;;;10.77;4.47;;;;;;;;;;21261612;27;20049;-57
2022/07/02 03:25:41;;;;;;;11.98;4.40;;;;;;;;;;21261487;27;20051;-56
2022/07/02 03:35:44;;;;;;;10.15;4.55;;;;;;;;;;21242770;27;20402;-57
2022/07/02 03:45:47;;;;;;;10.05;4.88;;;;;;;;;;21258772;27;20081;-56
2022/07/02 03:55:49;;;;;;;9.23;4.40;;;;;;;;;;21257796;27;20070;-56
2022/07/02 04:05:52;;;;;;;14.38;7.45;;;;;;;;;;21256641;27;20090;-55
2022/07/02 04:15:55;;;;;;;8.30;3.78;;;;;;;;;;21257881;27;20047;-58
2022/07/02 04:25:57;;;;;;;12.82;4.07;;;;;;;;;;21256406;27;20490;-56
2022/07/02 04:35:59;;;;;;;11.77;4.80;;;;;;;;;;21256355;27;20486;-57
2022/07/02 04:46:02;;;;;;;11.10;5.13;;;;;;;;;;21254811;27;20160;-59
2022/07/02 04:56:06;;;;;;;8.20;4.30;;;;;;;;;;21236876;27;20050;-57
2022/07/02 05:06:08;;;;;;;11.57;5.03;;;;;;;;;;21254241;27;20065;-57
2022/07/02 05:16:11;;;;;;;12.25;4.30;;;;;;;;;;21252718;27;20050;-57
2022/07/02 05:26:13;;;;;;;8.63;4.50;;;;;;;;;;21251195;27;20059;-57
2022/07/02 05:36:15;;;;;;;11.55;5.22;;;;;;;;;;21251408;27;20168;-56
2022/07/02 05:46:18;;;;;;;7.93;4.40;;;;;;;;;;21249403;27;20051;-57
2022/07/02 05:56:20;;;;;;;;;;;;;;;;;;21249349;27;20042;-57
2022/07/02 06:16:43;;;;;;;11.32;4.93;;;;;;;;;;21247763;27;20080;-58
2022/07/02 06:26:45;;;;;;;12.05;5.53;;;;;;;;;;21248509;28;20058;-57
2022/07/02 06:36:47;;;;;;;10.15;5.03;;;;;;;;;;21247965;27;20084;-57
2022/07/02 06:46:49;;;;;;;12.77;5.07;;;;;;;;;;21247949;28;20496;-57
2022/07/02 06:56:51;;;;;;;8.80;5.05;;;;;;;;;;21247682;28;20364;-60
2022/07/02 07:06:54;;;;;;;6.25;4.32;;;;;;;;;;21245585;28;20100;-56
2022/07/02 07:16:56;;;;;;;9.95;4.75;;;;;;;;;;21245977;27;20403;-55
2022/07/02 07:26:59;;;;;;;9.55;4.00;;;;;;;;;;21254233;27;20133;-59
2022/07/02 07:37:01;;;;;;;5.88;3.63;;;;;;;;;;21259907;27;20039;-57
2022/07/02 07:47:03;;;;;;;9.98;3.45;;;;;;;;;;21259602;27;20108;-57
2022/07/02 07:57:05;;;;;;;9.40;3.40;;;;;;;;;;21259261;27;20394;-57
2022/07/02 08:07:07;;;;;;;7.07;3.50;;;;;;;;;;21257103;27;20055;-58
2022/07/02 08:17:09;;;;;;;6.03;3.40;;;;;;;;;;21256138;27;20084;-57
2022/07/02 08:27:12;;;;;;;9.52;3.53;;;;;;;;;;21256784;27;20463;-56
2022/07/02 08:37:15;;;;;;;7.72;3.53;;;;;;;;;;21255062;27;20070;-56
2022/07/02 08:47:19;;;;;;;10.77;4.00;;;;;;;;;;21254859;27;20520;-57
2022/07/02 08:57:22;;;;;;;10.20;3.47;;;;;;;;;;21255263;27;20484;-58
2022/07/02 09:07:24;;;;;;;8.85;3.63;;;;;;;;;;21252967;27;20055;-57
2022/07/02 09:17:26;;;;;;;6.32;3.40;;;;;;;;;;21252113;27;20047;-55
2022/07/02 09:27:28;;;;;;;9.52;3.58;;;;;;;;;;21249936;27;20113;-58
2022/07/02 09:37:31;;;;;;;11.02;3.85;;;;;;;;;;21250672;27;20475;-56
2022/07/02 09:47:33;;;;;;;9.82;3.38;;;;;;;;;;21247332;27;20055;-57
2022/07/02 09:57:35;;;;;;;8.05;4.15;;;;;;;;;;21249018;27;20092;-58
2022/07/02 10:07:37;;;;;;;11.50;3.92;;;;;;;;;;21247705;27;20048;-57
2022/07/02 10:17:39;;;;;;;8.02;3.80;;;;;;;;;;21247124;27;20043;-57
2022/07/02 10:27:43;;;;;;;38.72;7.53;;;;;;;;;;21247797;27;20506;-56
2022/07/02 10:37:45;;;;;;;9.77;3.40;;;;;;;;;;21246452;28;20108;-56
2022/07/02 10:48:04;;;;;;;11.18;3.80;;;;;;;;;;21244915;27;20051;-59
2022/07/02 10:58:07;;;;;;;13.00;3.75;;;;;;;;;;21251165;27;20403;-56
2022/07/02 11:08:28;;;;;;;7.88;3.28;;;;;;;;;;21261739;27;20106;-55
2022/07/02 11:18:32;;;;;;;5.68;2.85;;;;;;;;;;21261143;27;20064;-56
2022/07/02 11:28:36;;;;;;;7.80;3.38;;;;;;;;;;21260593;27;20455;-59
2022/07/02 11:38:39;;;;;;;7.82;3.08;;;;;;;;;;21260820;27;20047;-57
2022/07/02 11:48:41;;;;;;;9.63;4.22;;;;;;;;;;21260253;27;20079;-60
2022/07/02 11:58:43;;;;;;;8.52;3.38;;;;;;;;;;21258596;27;20435;-58
2022/07/02 12:08:45;;;;;;;6.47;2.58;;;;;;;;;;21256774;27;20057;-56
2022/07/02 12:18:56;;;;;;;10.27;3.40;;;;;;;;;;21257487;27;20223;-57
2022/07/02 12:39:38;;;;;;;8.38;3.22;;;;;;;;;;21257336;27;20135;-56
2022/07/02 12:49:40;;;;;;;7.68;3.13;;;;;;;;;;21255619;27;20096;-56
2022/07/02 12:59:42;;;;;;;9.50;3.00;;;;;;;;;;21254771;27;20040;-56
2022/07/02 13:09:44;;;;;;;7.47;3.15;;;;;;;;;;21252960;27;20052;-56
2022/07/02 13:19:47;;;;;;;7.03;2.83;;;;;;;;;;21250547;27;20456;-57
2022/07/02 13:29:50;;;;;;;5.47;2.80;;;;;;;;;;21251091;27;20130;-57
2022/07/02 13:39:52;;;;;;;6.80;3.25;;;;;;;;;;21231360;27;20045;-57
2022/07/02 13:49:54;;;;;;;7.97;3.15;;;;;;;;;;21249437;27;20130;-58
2022/07/02 13:59:56;;;;;;;6.97;2.20;;;;;;;;;;21249222;27;20471;-57
2022/07/02 14:09:58;;;;;;;5.93;3.20;;;;;;;;;;21247403;27;20055;-58
2022/07/02 14:20:00;;;;;;;4.68;2.53;;;;;;;;;;21247745;27;20126;-56
2022/07/02 14:30:03;;;;;;;7.32;2.75;;;;;;;;;;21246832;27;20060;-57
2022/07/02 14:40:05;;;;;;;7.78;2.70;;;;;;;;;;21264337;27;20050;-56
2022/07/02 14:50:08;;;;;;;10.15;3.67;;;;;;;;;;21262632;27;20059;-58
2022/07/02 15:00:11;;;;;;;4.63;2.70;;;;;;;;;;21262856;27;20062;-57
2022/07/02 15:10:13;;;;;;;6.72;2.53;;;;;;;;;;21261590;27;20487;-63
2022/07/02 15:20:15;;;;;;;6.47;3.67;;;;;;;;;;21260451;27;20080;-57
2022/07/02 15:30:27;;;;;;;7.88;2.90;;;;;;;;;;21259444;27;20356;-59
2022/07/02 15:40:30;;;;;;;6.78;2.40;;;;;;;;;;21260539;27;20047;-57
2022/07/02 15:50:32;;;;;;;7.80;3.17;;;;;;;;;;21257756;27;20047;-56
2022/07/02 16:00:36;;;;;;;7.47;3.22;;;;;;;;;;21258298;27;20051;-56
2022/07/02 16:10:38;;;;;;;6.90;2.88;;;;;;;;;;21257817;27;20073;-56
2022/07/02 16:20:40;;;;;;;7.95;2.83;;;;;;;;;;21258038;27;20551;-58
2022/07/02 16:30:47;;;;;;;5.57;2.80;;;;;;;;;;21236925;27;20123;-57
2022/07/02 16:40:49;;;;;;;7.90;3.10;;;;;;;;;;21254077;27;20100;-59
2022/07/02 16:50:52;;;;;;;9.80;3.05;;;;;;;;;;21253824;27;20043;-58
2022/07/02 17:00:55;;;;;;;7.53;2.95;;;;;;;;;;21252832;27;20446;-58
2022/07/02 17:21:18;;;;;;;9.82;3.13;;;;;;;;;;21250964;27;20043;-57
2022/07/02 17:31:20;;;;;;;9.70;3.35;;;;;;;;;;21249758;27;20047;-57
2022/07/02 17:41:22;;;;;;;8.35;2.80;;;;;;;;;;21249732;27;20089;-57
2022/07/02 17:51:24;;;;;;;7.50;3.10;;;;;;;;;;21248603;27;20414;-57
2022/07/02 18:01:26;;;;;;;10.20;2.75;;;;;;;;;;21247745;27;20055;-59
2022/07/02 18:11:28;;;;;;;8.63;2.50;;;;;;;;;;21247101;27;20058;-58
2022/07/02 18:21:30;;;;;;;7.07;2.70;;;;;;;;;;21248537;27;20126;-58
2022/07/02 18:31:32;;;;;;;7.35;3.33;;;;;;;;;;21246892;27;20058;-60
2022/07/02 18:41:34;;;;;;;11.68;4.93;;;;;;;;;;21228503;28;20055;-57
2022/07/02 18:51:36;;;;;;;6.22;3.05;;;;;;;;;;21245910;27;20047;-58
2022/07/02 19:01:38;;;;;;;7.60;3.80;;;;;;;;;;21228004;27;20051;-58
2022/07/02 19:11:42;;;;;;;9.05;4.28;;;;;;;;;;21245590;28;20058;-57
2022/07/02 19:21:44;;;;;;;8.20;4.45;;;;;;;;;;21254808;27;20498;-57
2022/07/02 19:31:46;;;;;;;12.25;5.57;;;;;;;;;;21260687;27;20137;-57
2022/07/02 19:41:48;;;;;;;12.27;4.65;;;;;;;;;;21260195;27;20047;-57
2022/07/02 19:51:50;;;;;;;10.43;4.50;;;;;;;;;;21258937;27;20053;-57
2022/07/02 20:01:53;;;;;;;12.02;5.57;;;;;;;;;;21257625;27;20043;-56
2022/07/02 20:11:55;;;;;;;12.25;5.03;;;;;;;;;;21256180;27;20137;-58
2022/07/02 20:21:57;;;;;;;11.65;4.97;;;;;;;;;;21256062;27;20059;-58
2022/07/02 20:32:01;;;;;;;16.45;5.15;;;;;;;;;;21255652;27;20096;-58
2022/07/02 20:42:04;;;;;;;13.52;6.82;;;;;;;;;;21255698;27;20049;-57
2022/07/02 20:52:06;;;;;;;14.95;5.03;;;;;;;;;;21255117;27;20388;-57
2022/07/02 21:02:08;;;;;;;18.67;5.82;;;;;;;;;;21253308;27;20136;-56
2022/07/02 21:12:10;;;;;;;16.77;6.60;;;;;;;;;;21253193;27;20082;-56
2022/07/02 21:22:11;;;;;;;23.48;6.55;;;;;;;;;;21253837;27;20066;-56
2022/07/02 21:32:13;;;;;;;18.48;6.50;;;;;;;;;;21251688;27;20095;-57
2022/07/02 21:42:15;;;;;;;15.85;5.40;;;;;;;;;;21249852;27;20051;-57
2022/07/02 21:52:16;;;;;;;18.27;6.47;;;;;;;;;;21249868;27;20498;-58
2022/07/02 22:02:18;;;;;;;18.48;6.20;;;;;;;;;;21216884;27;20044;-59
2022/07/02 22:12:20;;;;;;;24.10;8.82;;;;;;;;;;21079572;28;20495;-58
2022/07/02 22:22:22;;;;;;;17.60;5.07;;;;;;;;;;21081541;28;20051;-57
2022/07/02 22:32:24;;;;;;;19.73;4.40;;;;;;;;;;21078774;28;20087;-56
2022/07/02 22:42:26;;;;;;;24.35;6.65;;;;;;;;;;21078657;28;20400;-57
2022/07/02 22:52:28;;;;;;;19.13;6.13;;;;;;;;;;21080940;28;20079;-56
2022/07/02 23:02:30;;;;;;;24.08;5.70;;;;;;;;;;21109587;28;20051;-56
2022/07/02 23:12:31;;;;;;;23.00;5.40;;;;;;;;;;21176979;28;20054;-59
2022/07/02 23:22:33;;;;;;;21.58;4.20;;;;;;;;;;21176604;28;20097;-57
2022/07/02 23:32:36;;;;;;;16.48;4.32;;;;;;;;;;21175802;28;20051;-57
2022/07/02 23:42:38;;;;;;;20.48;4.85;;;;;;;;;;21174952;28;20058;-59
2022/07/02 23:52:39;;;;;;;17.80;4.78;;;;;;;;;;21174398;28;20051;-58
